ROMMA est une association bénévole à but non lucratif. Votre soutien est indispensable : ADHERER à ROMMA ou FAIRE un DON

Taninges - (74, Haute-Savoie)

Vallée du Giffre (635 m)   Longitude: 06° 35' 38" E   Latitude: 46° 06' 21" N Station romma n°98
 

Détail journalier du     <<     >>

Température Precipitation Humidité Pression Vent Dir Rafale Dir. rafale Ensol.
Heure (°C) (mm) (%) (hPa) (km/h) (km/h) (min)
01:00 13.109010171SSE5SSE0
02:00 11.8092101702SSE0
03:00 11.3094101702SSE0
04:00 10.5095101703SSE0
05:00 10.1096101603SSE0
06:00 9.5096101703SSE0
07:00 9.7096101705E0
08:00 12.109710161E5ESE35
09:00 15.308710161ESE5SE60
10:00 18.607310152SSE6SSE60
11:00 19.807310157OSO16SO60
12:00 21.207110159SO18SO60
13:00 22.906610137SO18OSO60
14:00 24.2067101310SO21OSO60
15:00 24.8062101312OSO24SO55
16:00 25.2059101211OSO24OSO60
17:00 24.9058101210OSO24SSO30
18:00 24.305310128OSO19O15
19:00 23.505710125O11OSO0
20:00 22.106310132ENE8OSO0
21:00 20.407410121ENE5ENE0
22:00 19.607610121E5E0
23:00 19.207710121SSO5NNE0
minuit 18.71.28110132ONO8O0

Graphique du 01-08-2019

 

Serveur OMMA